createdAt,value
2023-07-02T00:02:29.606Z,3.08
2023-07-02T00:05:01.846Z,3.25
2023-07-02T00:07:35.461Z,3.17
2023-07-02T00:10:06.538Z,3.77
2023-07-02T00:12:37.117Z,3.00
2023-07-02T00:15:08.214Z,2.95
2023-07-02T00:17:40.361Z,3.08
2023-07-02T00:20:16.013Z,2.90
2023-07-02T00:22:47.357Z,3.22
2023-07-02T00:25:18.227Z,3.50
2023-07-02T00:27:48.759Z,3.10
2023-07-02T00:30:19.285Z,3.60
2023-07-02T00:32:49.883Z,3.50
2023-07-02T00:35:20.429Z,3.33
2023-07-02T00:37:51.802Z,3.50
2023-07-02T00:40:22.424Z,3.62
2023-07-02T00:42:52.942Z,3.42
2023-07-02T00:45:23.824Z,4.00
2023-07-02T00:47:56.209Z,4.00
2023-07-02T00:50:28.302Z,4.20
2023-07-02T00:52:59.244Z,4.53
2023-07-02T00:55:29.738Z,4.62
2023-07-02T00:58:00.234Z,4.12
2023-07-02T01:00:32.356Z,4.33
2023-07-02T01:03:03.565Z,4.80
2023-07-02T01:05:35.862Z,4.80
2023-07-02T01:08:07.132Z,5.03
2023-07-02T01:10:37.969Z,5.30
2023-07-02T01:13:17.327Z,7.00
2023-07-02T01:15:48.058Z,5.65
2023-07-02T01:18:18.808Z,7.08
2023-07-02T01:20:50.101Z,5.72
2023-07-02T01:23:21.039Z,6.53
2023-07-02T01:25:53.608Z,6.65
2023-07-02T01:28:25.932Z,6.10
2023-07-02T01:30:56.480Z,5.83
2023-07-02T01:33:27.005Z,5.90
2023-07-02T01:35:57.529Z,6.12
2023-07-02T01:38:28.802Z,6.95
2023-07-02T01:40:59.310Z,6.72
2023-07-02T01:43:29.919Z,6.80
2023-07-02T01:46:02.216Z,6.92
2023-07-02T01:48:32.681Z,6.10
2023-07-02T01:51:03.901Z,6.30
2023-07-02T01:53:34.439Z,7.47
2023-07-02T01:56:05.175Z,6.67
2023-07-02T01:58:35.707Z,7.00
2023-07-02T02:01:06.248Z,8.10
2023-07-02T02:03:36.818Z,8.70
2023-07-02T02:06:07.425Z,9.25
2023-07-02T02:08:38.036Z,9.08
2023-07-02T02:11:08.562Z,8.03
2023-07-02T02:13:39.253Z,8.75
2023-07-02T02:16:10.060Z,8.40
2023-07-02T02:18:40.647Z,8.90
2023-07-02T02:21:11.364Z,8.85
2023-07-02T02:23:41.860Z,9.03
2023-07-02T02:26:12.646Z,9.13
2023-07-02T02:28:43.935Z,8.50
2023-07-02T02:31:14.595Z,8.98
2023-07-02T02:33:45.592Z,9.43
2023-07-02T02:36:16.920Z,8.80
2023-07-02T02:38:47.460Z,8.53
2023-07-02T02:41:17.938Z,8.83
2023-07-02T02:43:48.624Z,8.93
2023-07-02T02:46:25.971Z,8.80
2023-07-02T02:48:56.501Z,8.50
2023-07-02T02:51:27.158Z,8.08
2023-07-02T02:53:57.753Z,8.38
2023-07-02T02:56:30.344Z,8.13
2023-07-02T02:59:01.063Z,7.92
2023-07-02T03:01:31.831Z,8.95
2023-07-02T03:04:02.410Z,7.03
2023-07-02T03:06:33.030Z,8.13
2023-07-02T03:09:03.673Z,7.10
2023-07-02T03:11:34.394Z,9.03
2023-07-02T03:14:04.791Z,7.55
2023-07-02T03:16:36.129Z,7.37
2023-07-02T03:19:06.676Z,8.63
2023-07-02T03:21:37.368Z,7.33
2023-07-02T03:24:08.330Z,7.42
2023-07-02T03:26:39.138Z,7.70
2023-07-02T03:29:09.834Z,7.28
2023-07-02T03:31:40.430Z,6.67
2023-07-02T03:34:11.932Z,6.42
2023-07-02T03:36:42.539Z,7.10
2023-07-02T03:39:13.085Z,7.03
2023-07-02T03:41:43.819Z,6.67
2023-07-02T03:44:14.319Z,6.45
2023-07-02T03:46:45.428Z,6.67
2023-07-02T03:49:15.886Z,7.45
2023-07-02T03:51:46.431Z,6.22
2023-07-02T03:54:19.810Z,6.55
2023-07-02T03:56:50.443Z,6.90
2023-07-02T03:59:21.553Z,6.03
2023-07-02T04:01:53.405Z,6.97
2023-07-02T04:04:24.235Z,6.53
2023-07-02T04:06:55.084Z,6.28
2023-07-02T04:09:25.575Z,7.72
2023-07-02T04:11:57.620Z,6.55
2023-07-02T04:14:28.295Z,5.70
2023-07-02T04:16:59.005Z,5.87
2023-07-02T04:19:29.466Z,6.05
2023-07-02T04:22:00.063Z,7.00
2023-07-02T04:24:30.520Z,5.83
2023-07-02T04:27:35.686Z,8.10
2023-07-02T04:29:33.665Z,5.42
2023-07-02T04:32:05.338Z,5.95
2023-07-02T04:34:37.610Z,5.53
2023-07-02T04:37:08.283Z,6.42
2023-07-02T04:39:38.873Z,6.53
2023-07-02T04:42:11.045Z,5.70
2023-07-02T04:44:43.215Z,5.78
2023-07-02T04:47:14.039Z,5.75
2023-07-02T04:49:44.477Z,5.28
2023-07-02T04:52:15.154Z,4.58
2023-07-02T04:54:48.950Z,5.37
2023-07-02T04:57:19.518Z,5.17
2023-07-02T04:59:50.004Z,4.90
2023-07-02T05:02:20.576Z,4.58
2023-07-02T05:04:52.644Z,4.70
2023-07-02T05:07:23.301Z,4.37
2023-07-02T05:09:54.075Z,5.03
2023-07-02T05:12:25.428Z,4.55
2023-07-02T05:14:57.561Z,4.83
2023-07-02T05:17:28.184Z,5.00
2023-07-02T05:20:00.345Z,5.55
2023-07-02T05:22:30.898Z,5.12
2023-07-02T05:25:02.664Z,4.08
2023-07-02T05:27:33.397Z,5.15
2023-07-02T05:30:03.970Z,4.97
2023-07-02T05:32:36.291Z,3.67
2023-07-02T05:35:07.208Z,3.70
2023-07-02T05:37:37.927Z,3.42
2023-07-02T05:40:09.240Z,4.25
2023-07-02T05:42:39.871Z,3.17
2023-07-02T05:45:11.838Z,3.75
2023-07-02T05:47:42.408Z,3.72
2023-07-02T05:50:13.071Z,4.67
2023-07-02T05:52:43.668Z,3.10
2023-07-02T05:55:14.467Z,4.22
2023-07-02T05:57:45.404Z,4.58
2023-07-02T06:00:16.542Z,3.67
2023-07-02T06:02:50.535Z,3.72
2023-07-02T06:05:21.308Z,4.03
2023-07-02T06:07:51.850Z,3.17
2023-07-02T06:10:22.457Z,4.03
2023-07-02T06:12:53.295Z,4.30
2023-07-02T06:15:23.996Z,4.90
2023-07-02T06:17:56.226Z,7.78
2023-07-02T06:20:26.728Z,4.53
2023-07-02T06:22:57.236Z,5.87
2023-07-02T06:25:28.470Z,6.08
2023-07-02T06:27:59.923Z,4.85
2023-07-02T06:30:33.054Z,5.75
2023-07-02T06:33:02.666Z,5.92
2023-07-02T06:35:34.784Z,3.92
2023-07-02T06:38:05.289Z,5.62
2023-07-02T06:40:35.854Z,7.05
2023-07-02T06:43:06.471Z,6.70
2023-07-02T06:45:37.449Z,6.15
2023-07-02T06:48:07.988Z,5.97
2023-07-02T06:50:38.491Z,5.08
2023-07-02T06:53:10.614Z,5.00
2023-07-02T06:55:43.966Z,5.20
2023-07-02T06:58:14.673Z,4.25
2023-07-02T07:00:45.153Z,4.78
2023-07-02T07:03:15.886Z,4.97
2023-07-02T07:05:46.597Z,5.20
2023-07-02T07:08:17.057Z,5.60
2023-07-02T07:10:48.221Z,5.55
2023-07-02T07:13:18.923Z,7.15
2023-07-02T07:15:49.966Z,8.15
2023-07-02T07:18:20.785Z,5.85
2023-07-02T07:20:53.205Z,6.85
2023-07-02T07:23:24.011Z,6.40
2023-07-02T07:25:54.628Z,6.33
2023-07-02T07:28:25.171Z,7.80
2023-07-02T07:30:55.666Z,6.10
2023-07-02T07:33:26.632Z,5.15
2023-07-02T07:35:57.339Z,4.95
2023-07-02T07:38:28.035Z,7.85
2023-07-02T07:40:58.592Z,5.90
2023-07-02T07:43:29.078Z,6.37
2023-07-02T07:46:02.837Z,7.70
2023-07-02T07:48:33.545Z,6.70
2023-07-02T07:51:04.066Z,7.17
2023-07-02T07:53:34.543Z,9.20
2023-07-02T07:56:05.205Z,7.83
2023-07-02T07:58:36.078Z,6.03
2023-07-02T08:01:06.723Z,7.67
2023-07-02T08:03:39.744Z,5.97
2023-07-02T08:06:11.814Z,5.47
2023-07-02T08:08:42.361Z,6.45
2023-07-02T08:11:13.236Z,4.22
2023-07-02T08:13:47.051Z,4.58
2023-07-02T08:16:18.020Z,8.25
2023-07-02T08:18:48.464Z,7.25
2023-07-02T08:21:19.121Z,6.45
2023-07-02T08:23:49.734Z,4.00
2023-07-02T08:26:20.347Z,5.67
2023-07-02T08:28:52.286Z,4.17
2023-07-02T08:31:23.753Z,4.40
2023-07-02T08:33:54.985Z,3.87
2023-07-02T08:36:25.660Z,4.78
2023-07-02T08:38:57.347Z,7.72
2023-07-02T08:41:28.160Z,5.45
2023-07-02T08:44:04.564Z,4.47
2023-07-02T08:46:35.203Z,6.97
2023-07-02T08:49:05.965Z,4.60
2023-07-02T08:51:38.332Z,5.53
2023-07-02T08:54:08.943Z,4.62
2023-07-02T08:56:40.199Z,7.90
2023-07-02T08:59:11.541Z,5.50
2023-07-02T09:01:52.876Z,5.80
2023-07-02T09:04:29.387Z,5.65
2023-07-02T09:07:10.718Z,7.55
2023-07-02T09:09:51.565Z,4.92
2023-07-02T09:12:29.559Z,7.03
2023-07-02T09:15:06.587Z,6.22
2023-07-02T09:17:41.827Z,8.20
2023-07-02T09:20:12.563Z,6.87
2023-07-02T09:22:46.251Z,7.25
2023-07-02T09:25:16.775Z,7.25
2023-07-02T09:27:48.905Z,8.33
2023-07-02T09:30:19.670Z,6.92
2023-07-02T09:32:50.526Z,6.90
2023-07-02T09:35:21.768Z,6.22
2023-07-02T09:37:53.271Z,8.30
2023-07-02T09:40:25.525Z,6.85
2023-07-02T09:42:57.161Z,8.48
2023-07-02T09:45:29.557Z,5.55
2023-07-02T09:48:01.738Z,8.95
2023-07-02T09:50:33.421Z,7.00
2023-07-02T09:53:04.026Z,10.90
2023-07-02T09:55:36.308Z,8.60
2023-07-02T09:58:09.213Z,8.58
2023-07-02T10:00:40.650Z,9.90
2023-07-02T10:03:11.530Z,8.23
2023-07-02T10:05:42.094Z,12.85
2023-07-02T10:08:19.015Z,9.05
2023-07-02T10:10:50.445Z,11.25
2023-07-02T10:13:30.488Z,9.00
2023-07-02T10:16:07.760Z,9.45
2023-07-02T10:18:38.876Z,9.18
2023-07-02T10:21:20.233Z,9.75
2023-07-02T10:23:50.698Z,11.20
2023-07-02T10:26:21.853Z,10.88
2023-07-02T10:29:01.020Z,9.90
2023-07-02T10:31:31.796Z,9.18
2023-07-02T10:34:02.321Z,11.88
2023-07-02T10:36:33.176Z,10.53
2023-07-02T10:39:05.924Z,10.25
2023-07-02T10:41:36.459Z,8.70
2023-07-02T10:44:13.287Z,11.65
2023-07-02T10:46:47.783Z,10.10
2023-07-02T10:49:21.504Z,10.88
2023-07-02T10:52:05.104Z,11.00
2023-07-02T10:54:43.898Z,8.93
2023-07-02T10:57:20.735Z,11.15
2023-07-02T10:59:52.283Z,11.03
2023-07-02T11:02:23.023Z,10.15
2023-07-02T11:04:56.195Z,13.40
2023-07-02T11:07:27.389Z,10.90
2023-07-02T11:09:57.998Z,13.80
2023-07-02T11:12:32.794Z,11.93
2023-07-02T11:15:12.668Z,12.68
2023-07-02T11:17:43.721Z,12.43
2023-07-02T11:20:16.933Z,12.73
2023-07-02T11:22:51.948Z,13.40
2023-07-02T11:25:24.474Z,13.90
2023-07-02T11:28:05.752Z,15.43
2023-07-02T11:30:39.479Z,13.78
2023-07-02T11:33:11.265Z,13.85
2023-07-02T11:35:41.989Z,16.37
2023-07-02T11:38:13.622Z,12.98
2023-07-02T11:40:47.609Z,11.83
2023-07-02T11:43:18.792Z,13.00
2023-07-02T11:45:49.693Z,11.12
2023-07-02T11:48:21.473Z,11.05
2023-07-02T11:50:52.081Z,11.97
2023-07-02T11:53:22.636Z,13.88
2023-07-02T11:55:53.353Z,11.22
2023-07-02T11:58:24.034Z,11.57
2023-07-02T12:00:54.709Z,12.40
2023-07-02T12:03:25.433Z,10.03
2023-07-02T12:05:56.013Z,10.78
2023-07-02T12:08:27.107Z,9.78
2023-07-02T12:10:58.685Z,13.95
2023-07-02T12:13:29.383Z,10.90
2023-07-02T12:16:01.355Z,11.48
2023-07-02T12:18:31.800Z,8.90
2023-07-02T12:21:03.159Z,11.30
2023-07-02T12:23:33.935Z,9.53
2023-07-02T12:26:04.397Z,12.40
2023-07-02T12:28:34.966Z,13.08
2023-07-02T12:31:05.657Z,11.05
2023-07-02T12:33:37.506Z,12.47
2023-07-02T12:36:09.303Z,10.68
2023-07-02T12:38:40.024Z,11.28
2023-07-02T12:41:10.771Z,9.98
2023-07-02T12:43:42.704Z,11.93
2023-07-02T12:46:13.232Z,10.93
2023-07-02T12:48:43.818Z,10.23
2023-07-02T12:51:18.022Z,10.08
2023-07-02T12:53:48.808Z,13.75
2023-07-02T12:56:19.397Z,10.60
2023-07-02T12:58:51.685Z,10.35
2023-07-02T13:01:22.500Z,11.63
2023-07-02T13:03:53.188Z,11.68
2023-07-02T13:06:23.989Z,12.15
2023-07-02T13:08:56.244Z,12.18
2023-07-02T13:11:26.937Z,14.78
2023-07-02T13:13:57.977Z,17.07
2023-07-02T13:16:31.618Z,11.90
2023-07-02T13:19:03.080Z,15.88
2023-07-02T13:21:33.596Z,10.72
2023-07-02T13:24:06.322Z,11.75
2023-07-02T13:26:37.113Z,10.00
2023-07-02T13:29:07.776Z,11.25
2023-07-02T13:31:40.378Z,10.23
2023-07-02T13:34:11.148Z,10.32
2023-07-02T13:36:41.966Z,11.00
2023-07-02T13:39:13.224Z,8.93
2023-07-02T13:41:45.161Z,12.00
2023-07-02T13:44:17.296Z,13.48
2023-07-02T13:46:49.340Z,9.33
2023-07-02T13:49:22.402Z,13.43
2023-07-02T13:51:52.997Z,11.40
2023-07-02T13:54:23.626Z,10.58
2023-07-02T13:56:54.998Z,12.07
2023-07-02T13:59:25.770Z,12.23
2023-07-02T14:02:01.749Z,13.05
2023-07-02T14:04:33.109Z,12.47
2023-07-02T14:07:05.697Z,12.95
2023-07-02T14:09:37.180Z,9.30
2023-07-02T14:12:08.431Z,13.45
2023-07-02T14:14:39.212Z,10.82
2023-07-02T14:17:12.130Z,11.68
2023-07-02T14:19:42.830Z,11.90
2023-07-02T14:22:13.467Z,12.70
2023-07-02T14:24:44.107Z,11.95
2023-07-02T14:27:15.494Z,11.40
2023-07-02T14:29:47.690Z,10.08
2023-07-02T14:32:18.576Z,11.80
2023-07-02T14:34:49.221Z,10.20
2023-07-02T14:37:19.962Z,13.10
2023-07-02T14:40:05.373Z,10.18
2023-07-02T14:42:22.581Z,9.50
2023-07-02T14:44:53.291Z,10.43
2023-07-02T14:47:24.140Z,13.83
2023-07-02T14:49:54.683Z,9.68
2023-07-02T14:52:25.406Z,10.70
2023-07-02T14:54:56.519Z,11.65
2023-07-02T14:57:28.995Z,13.78
2023-07-02T14:59:59.809Z,11.38
2023-07-02T15:02:33.333Z,10.78
2023-07-02T15:05:04.287Z,11.70
2023-07-02T15:07:35.144Z,10.63
2023-07-02T15:10:06.460Z,11.83
2023-07-02T15:12:45.479Z,12.25
2023-07-02T15:15:17.001Z,13.38
2023-07-02T15:17:47.932Z,10.80
2023-07-02T15:20:18.615Z,10.03
2023-07-02T15:22:50.863Z,13.95
2023-07-02T15:25:23.081Z,10.48
2023-07-02T15:27:56.111Z,11.28
2023-07-02T15:30:26.908Z,12.95
2023-07-02T15:32:58.326Z,13.78
2023-07-02T15:35:28.935Z,16.00
2023-07-02T15:37:59.572Z,10.80
2023-07-02T15:40:31.825Z,11.93
2023-07-02T15:43:02.518Z,9.45
2023-07-02T15:45:33.105Z,10.55
2023-07-02T15:48:04.813Z,10.45
2023-07-02T15:50:40.283Z,9.60
2023-07-02T15:53:10.847Z,9.03
2023-07-02T15:55:41.365Z,10.82
2023-07-02T15:58:13.200Z,10.15
2023-07-02T16:00:43.844Z,8.33
2023-07-02T16:03:14.987Z,10.95
2023-07-02T16:05:45.985Z,9.95
2023-07-02T16:08:16.925Z,9.75
2023-07-02T16:10:49.432Z,10.08
2023-07-02T16:13:19.964Z,12.63
2023-07-02T16:15:50.774Z,9.30
2023-07-02T16:18:21.523Z,9.15
2023-07-02T16:21:04.654Z,9.00
2023-07-02T16:23:37.315Z,9.20
2023-07-02T16:26:10.319Z,8.88
2023-07-02T16:28:41.103Z,6.92
2023-07-02T16:31:11.981Z,9.68
2023-07-02T16:33:43.884Z,9.60
2023-07-02T16:36:16.576Z,9.88
2023-07-02T16:38:47.360Z,10.38
2023-07-02T16:41:18.471Z,10.50
2023-07-02T16:43:48.964Z,9.60
2023-07-02T16:46:19.504Z,10.28
2023-07-02T16:48:50.044Z,9.33
2023-07-02T16:51:21.673Z,8.55
2023-07-02T16:53:54.833Z,10.50
2023-07-02T16:56:25.121Z,9.20
2023-07-02T16:58:55.674Z,8.78
2023-07-02T17:01:26.320Z,11.10
2023-07-02T17:03:57.238Z,11.35
2023-07-02T17:06:27.855Z,9.80
2023-07-02T17:09:19.767Z,9.03
2023-07-02T17:11:52.764Z,10.05
2023-07-02T17:14:24.896Z,10.00
2023-07-02T17:16:57.596Z,9.98
2023-07-02T17:19:31.148Z,9.55
2023-07-02T17:22:03.351Z,10.72
2023-07-02T17:24:36.685Z,9.13
2023-07-02T17:27:07.994Z,9.83
2023-07-02T17:29:38.700Z,8.58
2023-07-02T17:32:12.069Z,12.13
2023-07-02T17:34:42.620Z,9.58
2023-07-02T17:37:14.906Z,8.38
2023-07-02T17:39:46.558Z,10.53
2023-07-02T17:42:18.142Z,8.18
2023-07-02T17:44:50.130Z,9.03
2023-07-02T17:47:20.859Z,10.63
2023-07-02T17:49:52.840Z,9.45
2023-07-02T17:52:24.412Z,7.80
2023-07-02T17:54:59.684Z,11.28
2023-07-02T17:57:30.185Z,10.25
2023-07-02T18:00:01.904Z,8.93
2023-07-02T18:02:32.592Z,7.97
2023-07-02T18:05:03.299Z,9.10
2023-07-02T18:07:33.975Z,7.25
2023-07-02T18:10:04.787Z,9.18
2023-07-02T18:12:35.304Z,7.95
2023-07-02T18:15:07.306Z,12.18
2023-07-02T18:17:38.150Z,7.62
2023-07-02T18:20:09.774Z,9.00
2023-07-02T18:22:40.212Z,10.70
2023-07-02T18:25:12.757Z,8.48
2023-07-02T18:27:43.366Z,7.62
2023-07-02T18:30:15.567Z,11.45
2023-07-02T18:32:48.511Z,10.20
2023-07-02T18:35:20.874Z,7.95
2023-07-02T18:37:51.357Z,9.78
2023-07-02T18:40:23.106Z,8.78
2023-07-02T18:42:53.735Z,9.25
2023-07-02T18:45:24.731Z,9.10
2023-07-02T18:47:55.304Z,9.08
2023-07-02T18:50:26.794Z,8.43
2023-07-02T18:52:59.494Z,8.95
2023-07-02T18:55:30.119Z,10.58
2023-07-02T18:58:01.893Z,7.55
2023-07-02T19:00:34.133Z,9.70
2023-07-02T19:03:05.870Z,10.13
2023-07-02T19:05:37.882Z,8.93
2023-07-02T19:08:08.366Z,10.43
2023-07-02T19:10:40.295Z,8.38
2023-07-02T19:13:12.851Z,9.48
2023-07-02T19:15:44.526Z,8.60
2023-07-02T19:18:15.267Z,8.45
2023-07-02T19:20:45.883Z,7.80
2023-07-02T19:23:17.494Z,9.00
2023-07-02T19:25:49.401Z,13.53
2023-07-02T19:28:21.083Z,8.88
2023-07-02T19:30:53.221Z,9.28
2023-07-02T19:33:24.880Z,8.78
2023-07-02T19:35:57.806Z,10.32
2023-07-02T19:38:29.992Z,10.05
2023-07-02T19:41:02.141Z,9.85
2023-07-02T19:43:33.004Z,10.55
2023-07-02T19:46:04.002Z,12.90
2023-07-02T19:48:35.757Z,13.35
2023-07-02T19:51:08.927Z,12.05
2023-07-02T19:53:40.098Z,10.25
2023-07-02T19:56:14.150Z,10.95
2023-07-02T19:58:46.295Z,9.73
2023-07-02T20:01:17.232Z,10.78
2023-07-02T20:03:48.439Z,8.75
2023-07-02T20:06:20.582Z,7.83
2023-07-02T20:08:51.445Z,9.85
2023-07-02T20:11:21.941Z,10.45
2023-07-02T20:13:53.710Z,7.72
2023-07-02T20:16:27.797Z,9.08
2023-07-02T20:19:00.656Z,10.72
2023-07-02T20:21:31.653Z,8.58
2023-07-02T20:24:06.794Z,8.90
2023-07-02T20:26:37.309Z,9.13
2023-07-02T20:29:07.858Z,7.83
2023-07-02T20:31:38.368Z,8.78
2023-07-02T20:34:10.163Z,13.53
2023-07-02T20:36:41.221Z,8.58
2023-07-02T20:39:13.530Z,12.37
2023-07-02T20:41:45.665Z,13.48
2023-07-02T20:44:20.855Z,11.93
2023-07-02T20:46:53.537Z,9.45
2023-07-02T20:49:26.915Z,8.50
2023-07-02T20:51:57.515Z,11.05
2023-07-02T20:54:28.067Z,10.13
2023-07-02T20:57:00.176Z,9.70
2023-07-02T20:59:30.871Z,9.43
2023-07-02T21:02:01.446Z,8.13
2023-07-02T21:04:32.391Z,9.13
2023-07-02T21:07:02.973Z,8.70
2023-07-02T21:09:33.541Z,10.15
2023-07-02T21:12:04.167Z,10.28
2023-07-02T21:14:36.296Z,12.07
2023-07-02T21:17:08.843Z,10.82
2023-07-02T21:19:41.394Z,10.78
2023-07-02T21:22:12.514Z,11.43
2023-07-02T21:24:43.282Z,11.28
2023-07-02T21:27:13.790Z,11.68
2023-07-02T21:29:44.387Z,12.43
2023-07-02T21:32:15.532Z,9.40
2023-07-02T21:34:46.053Z,8.05
2023-07-02T21:37:17.094Z,8.53
2023-07-02T21:39:47.791Z,8.03
2023-07-02T21:42:18.825Z,9.65
2023-07-02T21:44:49.433Z,8.35
2023-07-02T21:47:20.033Z,8.60
2023-07-02T21:49:50.715Z,9.35
2023-07-02T21:52:22.933Z,10.93
2023-07-02T21:54:55.855Z,12.03
2023-07-02T21:57:28.015Z,11.48
2023-07-02T22:00:00.480Z,8.25
2023-07-02T22:02:31.088Z,7.42
2023-07-02T22:05:01.834Z,7.85
2023-07-02T22:07:33.240Z,9.45
2023-07-02T22:10:03.986Z,9.18
2023-07-02T22:12:34.488Z,11.63
2023-07-02T22:15:06.235Z,13.10
2023-07-02T22:17:37.467Z,9.58
2023-07-02T22:20:10.592Z,11.43
2023-07-02T22:22:44.016Z,10.35
2023-07-02T22:25:16.069Z,10.98
2023-07-02T22:27:47.048Z,11.60
2023-07-02T22:30:17.855Z,8.23
2023-07-02T22:32:48.918Z,7.47
2023-07-02T22:35:20.261Z,6.60
2023-07-02T22:37:53.493Z,9.63
2023-07-02T22:40:25.951Z,10.20
2023-07-02T22:42:56.571Z,9.48
2023-07-02T22:45:27.785Z,9.58
2023-07-02T22:47:59.724Z,8.53
2023-07-02T22:50:30.330Z,7.17
2023-07-02T22:53:00.889Z,7.10
2023-07-02T22:55:31.818Z,8.93
2023-07-02T22:58:02.637Z,6.35
2023-07-02T23:00:33.196Z,6.30
2023-07-02T23:03:03.907Z,7.50
2023-07-02T23:05:36.000Z,8.98
2023-07-02T23:08:06.660Z,6.80
2023-07-02T23:10:37.124Z,6.30
2023-07-02T23:13:07.647Z,8.93
2023-07-02T23:15:38.345Z,9.35
2023-07-02T23:18:08.842Z,6.28
2023-07-02T23:20:39.426Z,9.25
2023-07-02T23:23:10.273Z,6.10
2023-07-02T23:25:42.500Z,7.45
2023-07-02T23:28:13.857Z,7.72
2023-07-02T23:30:44.730Z,6.90
2023-07-02T23:33:15.251Z,9.20
2023-07-02T23:35:49.368Z,9.08
2023-07-02T23:38:20.038Z,9.00
2023-07-02T23:40:50.615Z,7.95
2023-07-02T23:43:21.189Z,7.95
2023-07-02T23:45:52.849Z,9.75
2023-07-02T23:48:23.758Z,9.18
2023-07-02T23:50:54.657Z,9.90
2023-07-02T23:53:26.661Z,8.03
2023-07-02T23:55:57.153Z,10.63
2023-07-02T23:58:27.810Z,12.58
